createdAt,value
2023-02-21T00:02:28.389Z,4.35
2023-02-21T00:07:48.719Z,4.07
2023-02-21T00:13:08.917Z,4.03
2023-02-21T00:18:28.838Z,4.20
2023-02-21T00:23:52.374Z,3.90
2023-02-21T00:29:12.521Z,4.22
2023-02-21T00:34:32.564Z,4.38
2023-02-21T00:39:52.851Z,5.53
2023-02-21T00:45:12.665Z,3.75
2023-02-21T00:50:33.075Z,5.97
2023-02-21T00:55:53.143Z,4.90
2023-02-21T01:01:13.719Z,4.60
2023-02-21T01:06:33.963Z,5.65
2023-02-21T01:11:53.834Z,4.75
2023-02-21T01:17:14.037Z,4.97
2023-02-21T01:22:34.403Z,4.55
2023-02-21T01:27:54.476Z,4.35
2023-02-21T01:33:14.694Z,5.18
2023-02-21T01:38:34.726Z,4.78
2023-02-21T01:43:55.065Z,4.60
2023-02-21T01:49:15.390Z,5.55
2023-02-21T01:54:36.525Z,4.40
2023-02-21T01:59:56.552Z,4.50
2023-02-21T02:05:17.280Z,4.57
2023-02-21T02:10:37.386Z,4.25
2023-02-21T02:15:45.921Z,4.38
2023-02-21T02:20:56.596Z,4.80
2023-02-21T02:26:03.802Z,6.03
2023-02-21T02:31:20.794Z,5.28
2023-02-21T02:36:27.189Z,3.95
2023-02-21T02:41:35.353Z,6.72
2023-02-21T02:46:38.369Z,4.20
2023-02-21T02:51:39.842Z,3.90
2023-02-21T02:56:41.268Z,3.90
2023-02-21T03:01:48.905Z,4.80
2023-02-21T03:06:53.296Z,3.92
2023-02-21T03:12:14.901Z,4.97
2023-02-21T03:17:19.338Z,4.65
2023-02-21T03:22:22.528Z,4.90
2023-02-21T03:27:25.014Z,3.97
2023-02-21T03:32:50.114Z,3.83
2023-02-21T03:37:52.767Z,5.25
2023-02-21T03:42:55.075Z,4.00
2023-02-21T03:47:56.407Z,3.88
2023-02-21T03:52:57.903Z,4.38
2023-02-21T03:57:59.217Z,4.60
2023-02-21T04:03:00.631Z,4.28
2023-02-21T04:08:02.134Z,4.00
2023-02-21T04:13:03.448Z,3.30
2023-02-21T04:18:04.846Z,5.50
2023-02-21T04:23:06.265Z,5.35
2023-02-21T04:28:07.624Z,5.25
2023-02-21T04:33:09.421Z,5.32
2023-02-21T04:38:10.829Z,5.93
2023-02-21T04:43:12.221Z,4.80
2023-02-21T04:48:13.610Z,4.93
2023-02-21T04:53:15.122Z,4.60
2023-02-21T04:58:16.513Z,3.55
2023-02-21T05:03:18.294Z,5.82
2023-02-21T05:08:19.667Z,4.47
2023-02-21T05:13:21.622Z,5.20
2023-02-21T05:18:23.311Z,5.88
2023-02-21T05:23:33.834Z,4.78
2023-02-21T05:28:35.276Z,4.72
2023-02-21T05:33:36.770Z,4.07
2023-02-21T05:38:48.652Z,4.22
2023-02-21T05:43:50.794Z,4.78
2023-02-21T05:48:52.649Z,4.55
2023-02-21T05:53:54.077Z,4.03
2023-02-21T05:58:55.386Z,5.43
2023-02-21T06:03:56.743Z,4.13
2023-02-21T06:08:58.063Z,3.85
2023-02-21T06:14:00.562Z,5.20
2023-02-21T06:19:02.619Z,6.28
2023-02-21T06:24:04.287Z,4.53
2023-02-21T06:29:05.830Z,4.35
2023-02-21T06:34:07.317Z,4.72
2023-02-21T06:39:10.459Z,5.10
2023-02-21T06:44:12.217Z,3.90
2023-02-21T06:49:13.603Z,4.63
2023-02-21T06:54:17.006Z,4.30
2023-02-21T06:59:18.339Z,5.22
2023-02-21T07:04:19.694Z,5.15
2023-02-21T07:09:21.279Z,5.80
2023-02-21T07:14:22.605Z,4.65
2023-02-21T07:19:23.963Z,4.65
2023-02-21T07:24:25.419Z,4.20
2023-02-21T07:29:26.798Z,4.57
2023-02-21T07:34:28.299Z,5.20
2023-02-21T07:39:29.682Z,5.70
2023-02-21T07:44:31.280Z,4.38
2023-02-21T07:49:38.391Z,4.80
2023-02-21T07:54:40.041Z,5.28
2023-02-21T07:59:41.430Z,4.30
2023-02-21T08:04:42.855Z,6.20
2023-02-21T08:09:44.282Z,5.07
2023-02-21T08:14:45.774Z,4.45
2023-02-21T08:19:47.280Z,4.60
2023-02-21T08:24:49.729Z,5.10
2023-02-21T08:29:51.813Z,5.07
2023-02-21T08:34:53.335Z,5.75
2023-02-21T08:39:54.769Z,5.03
2023-02-21T08:44:57.516Z,5.03
2023-02-21T08:49:58.868Z,5.35
2023-02-21T08:55:00.252Z,5.35
2023-02-21T09:00:01.801Z,4.10
2023-02-21T09:05:03.281Z,5.20
2023-02-21T09:10:05.591Z,5.15
2023-02-21T09:15:07.388Z,4.32
2023-02-21T09:20:09.890Z,4.97
2023-02-21T09:25:13.157Z,4.43
2023-02-21T09:30:23.715Z,4.82
2023-02-21T09:35:25.165Z,4.15
2023-02-21T09:40:32.653Z,4.13
2023-02-21T09:45:35.052Z,3.97
2023-02-21T09:50:41.313Z,4.05
2023-02-21T09:55:43.167Z,4.13
2023-02-21T10:00:46.689Z,4.90
2023-02-21T10:05:54.139Z,4.07
2023-02-21T10:11:02.359Z,4.25
2023-02-21T10:16:17.426Z,3.70
2023-02-21T10:21:28.235Z,3.95
2023-02-21T10:26:30.166Z,4.05
2023-02-21T10:31:36.341Z,4.88
2023-02-21T10:36:37.805Z,5.95
2023-02-21T10:41:40.048Z,5.88
2023-02-21T10:46:47.527Z,4.63
2023-02-21T10:52:02.575Z,5.30
2023-02-21T10:57:04.881Z,5.43
2023-02-21T11:02:25.525Z,4.88
2023-02-21T11:07:27.026Z,5.35
2023-02-21T11:12:31.921Z,4.78
2023-02-21T11:17:33.423Z,4.13
2023-02-21T11:22:35.182Z,6.22
2023-02-21T11:27:37.002Z,4.20
2023-02-21T11:32:40.113Z,5.90
2023-02-21T11:37:48.903Z,4.00
2023-02-21T11:42:50.450Z,4.15
2023-02-21T11:48:12.051Z,5.85
2023-02-21T11:53:13.418Z,5.78
2023-02-21T11:58:29.054Z,4.22
2023-02-21T12:03:30.430Z,4.57
2023-02-21T12:08:40.628Z,4.20
2023-02-21T12:14:03.028Z,5.47
2023-02-21T12:19:30.489Z,4.07
2023-02-21T12:24:53.520Z,4.22
2023-02-21T12:29:54.838Z,3.53
2023-02-21T12:34:56.133Z,4.45
2023-02-21T12:40:09.251Z,4.18
2023-02-21T12:45:25.730Z,3.85
2023-02-21T12:50:43.752Z,5.18
2023-02-21T12:55:51.536Z,2.78
2023-02-21T13:00:55.935Z,4.13
2023-02-21T13:06:00.543Z,4.38
2023-02-21T13:11:14.970Z,3.28
2023-02-21T13:16:18.567Z,3.92
2023-02-21T13:21:25.623Z,3.63
2023-02-21T13:26:45.842Z,5.78
2023-02-21T13:31:48.569Z,5.00
2023-02-21T13:36:50.150Z,3.25
2023-02-21T13:41:53.041Z,5.00
2023-02-21T13:46:59.562Z,3.65
2023-02-21T13:52:15.517Z,4.68
2023-02-21T13:57:30.230Z,3.75
2023-02-21T14:02:33.842Z,2.92
2023-02-21T14:07:56.641Z,3.85
2023-02-21T14:13:00.445Z,2.80
2023-02-21T14:18:01.889Z,3.55
2023-02-21T14:23:04.652Z,3.78
2023-02-21T14:28:25.917Z,4.07
2023-02-21T14:33:27.426Z,3.40
2023-02-21T14:38:30.749Z,4.00
2023-02-21T14:43:38.237Z,4.05
2023-02-21T14:48:51.600Z,3.08
2023-02-21T14:54:08.453Z,3.77
2023-02-21T14:59:12.839Z,4.07
2023-02-21T15:04:17.040Z,4.22
2023-02-21T15:09:20.359Z,3.97
2023-02-21T15:14:27.778Z,4.10
2023-02-21T15:19:30.792Z,3.78
2023-02-21T15:24:32.181Z,3.88
2023-02-21T15:29:33.518Z,4.03
2023-02-21T15:34:38.778Z,4.60
2023-02-21T15:39:42.366Z,4.57
2023-02-21T15:44:46.255Z,3.70
2023-02-21T15:49:56.057Z,4.70
2023-02-21T15:55:14.370Z,4.25
2023-02-21T16:00:22.165Z,3.58
2023-02-21T16:05:28.442Z,4.68
2023-02-21T16:10:30.372Z,3.85
2023-02-21T16:15:33.491Z,5.32
2023-02-21T16:20:34.921Z,4.97
2023-02-21T16:25:53.921Z,3.92
2023-02-21T16:30:58.146Z,5.07
2023-02-21T16:36:03.270Z,4.65
2023-02-21T16:41:04.978Z,4.45
2023-02-21T16:46:06.789Z,3.72
2023-02-21T16:51:11.137Z,4.95
2023-02-21T16:56:13.205Z,4.10
2023-02-21T17:01:16.423Z,5.70
2023-02-21T17:06:21.620Z,5.20
2023-02-21T17:11:22.968Z,5.72
2023-02-21T17:16:24.435Z,5.93
2023-02-21T17:21:25.830Z,6.72
2023-02-21T17:26:27.184Z,11.85
2023-02-21T17:31:28.611Z,10.70
2023-02-21T17:36:30.449Z,7.97
2023-02-21T17:41:31.761Z,4.55
2023-02-21T17:46:33.184Z,3.85
2023-02-21T17:51:34.605Z,4.60
2023-02-21T17:56:36.385Z,5.00
2023-02-21T18:01:37.885Z,7.22
2023-02-21T18:06:39.456Z,5.57
2023-02-21T18:11:40.974Z,5.63
2023-02-21T18:16:42.359Z,6.38
2023-02-21T18:21:45.499Z,4.78
2023-02-21T18:26:46.937Z,3.67
2023-02-21T18:31:54.504Z,5.43
2023-02-21T18:36:56.164Z,5.95
2023-02-21T18:41:57.595Z,4.70
2023-02-21T18:46:59.611Z,5.90
2023-02-21T18:52:03.757Z,6.47
2023-02-21T18:57:05.176Z,6.22
2023-02-21T19:02:06.684Z,7.45
2023-02-21T19:07:08.391Z,7.30
2023-02-21T19:12:09.787Z,7.78
2023-02-21T19:17:11.130Z,8.40
2023-02-21T19:22:12.509Z,7.43
2023-02-21T19:27:16.200Z,6.75
2023-02-21T19:32:19.197Z,7.17
2023-02-21T19:37:20.706Z,7.45
2023-02-21T19:42:22.069Z,7.82
2023-02-21T19:47:23.392Z,7.68
2023-02-21T19:52:24.774Z,7.60
2023-02-21T19:57:26.130Z,8.85
2023-02-21T20:02:28.083Z,7.60
2023-02-21T20:07:29.491Z,7.75
2023-02-21T20:12:30.789Z,6.05
2023-02-21T20:17:34.346Z,6.57
2023-02-21T20:22:35.714Z,5.93
2023-02-21T20:27:37.062Z,6.18
2023-02-21T20:32:38.397Z,4.88
2023-02-21T20:37:39.986Z,6.55
2023-02-21T20:42:42.244Z,7.22
2023-02-21T20:47:43.590Z,6.43
2023-02-21T20:52:46.617Z,7.18
2023-02-21T20:57:48.139Z,6.40
2023-02-21T21:02:50.371Z,12.23
2023-02-21T21:07:55.491Z,11.68
2023-02-21T21:12:57.002Z,11.52
2023-02-21T21:17:58.510Z,9.60
2023-02-21T21:22:59.904Z,7.03
2023-02-21T21:28:02.376Z,7.28
2023-02-21T21:33:07.359Z,7.00
2023-02-21T21:38:08.754Z,6.05
2023-02-21T21:43:12.099Z,6.22
2023-02-21T21:48:14.936Z,6.38
2023-02-21T21:53:16.701Z,7.60
2023-02-21T21:58:18.070Z,6.70
2023-02-21T22:03:19.556Z,7.90
2023-02-21T22:08:22.423Z,6.95
2023-02-21T22:13:29.042Z,8.70
2023-02-21T22:18:30.596Z,8.65
2023-02-21T22:23:31.970Z,6.70
2023-02-21T22:28:33.294Z,7.38
2023-02-21T22:33:34.629Z,8.20
2023-02-21T22:38:38.006Z,7.90
2023-02-21T22:43:39.330Z,7.07
2023-02-21T22:48:40.707Z,7.72
2023-02-21T22:53:43.480Z,7.28
2023-02-21T22:58:44.951Z,7.88
2023-02-21T23:03:47.054Z,7.70
2023-02-21T23:08:49.224Z,7.60
2023-02-21T23:13:52.242Z,8.88
2023-02-21T23:18:53.589Z,8.43
2023-02-21T23:23:54.946Z,10.38
2023-02-21T23:28:56.285Z,12.27
2023-02-21T23:33:59.701Z,11.98
2023-02-21T23:39:08.757Z,11.25
2023-02-21T23:44:11.494Z,12.02
2023-02-21T23:49:15.576Z,12.80
2023-02-21T23:54:18.020Z,10.85
2023-02-21T23:59:19.344Z,11.20
